Time;durP1;ratioP1;P1;durP2;ratioP2;P2;SDS_P1;SDS_P2;PMS_P1;PMS_P2;Temp;Humidity;BMP_temperature;BMP_pressure;BME280_temperature;BME280_humidity;BME280_pressure;Samples;Min_cycle;Max_cycle;Signal;HPM_P1;HPM_P2
2024/01/31 00:02:02;;;;;;;;;;;;;;;5.63;62.68;102696.75;5093509;28;19912;-79
2024/01/31 00:04:51;;;;;;;;;;;;;;;5.63;62.38;102698.63;5097544;28;19916;-78
2024/01/31 00:07:43;;;;;;;;;;;;;;;5.48;62.00;102697.22;5095263;28;19912;-79
2024/01/31 00:10:33;;;;;;;;;;;;;;;5.33;62.49;102693.31;5098842;28;19916;-78
2024/01/31 00:13:24;;;;;;;;;;;;;;;5.41;62.36;102687.56;5096891;28;19916;-79
2024/01/31 00:16:16;;;;;;;;;;;;;;;5.49;63.38;102681.81;5093797;28;19916;-78
2024/01/31 00:19:08;;;;;;;;;;;;;;;5.47;62.64;102682.06;5097789;28;19912;-79
2024/01/31 00:22:00;;;;;;;;;;;;;;;5.35;63.13;102680.38;5095891;28;19916;-77
2024/01/31 00:24:52;;;;;;;;;;;;;;;5.50;63.22;102668.09;5093742;28;20288;-80
2024/01/31 00:27:42;;;;;;;;;;;;;;;5.49;62.78;102676.41;5094644;28;19916;-78
2024/01/31 00:30:31;;;;;;;;;;;;;;;5.56;61.77;102674.44;5095118;28;20296;-79
2024/01/31 00:33:23;;;;;;;;;;;;;;;5.75;61.08;102673.28;5092679;28;20384;-80
2024/01/31 00:36:15;;;;;;;;;;;;;;;5.58;61.53;102672.34;5096250;28;19916;-79
2024/01/31 00:39:06;;;;;;;;;;;;;;;5.43;62.26;102670.09;5094275;28;19919;-77
2024/01/31 00:41:58;;;;;;;;;;;;;;;5.20;61.56;102674.63;5097898;28;19912;-79
2024/01/31 00:44:50;;;;;;;;;;;;;;;5.25;61.93;102675.56;5095385;28;19912;-77
2024/01/31 00:47:40;;;;;;;;;;;;;;;5.18;62.67;102669.47;5093494;28;19916;-78
2024/01/31 00:50:29;;;;;;;;;;;;;;;5.21;62.92;102665.47;5097080;28;19916;-78
2024/01/31 00:53:16;;;;;;;;;;;;;;;5.37;62.50;102667.50;5095435;28;19915;-77
2024/01/31 00:56:08;;;;;;;;;;;;;;;5.47;62.19;102673.16;5098034;28;20296;-77
2024/01/31 00:59:00;;;;;;;;;;;;;;;5.26;63.06;102669.13;5096341;28;19915;-77
2024/01/31 01:01:52;;;;;;;;;;;;;;;5.28;63.51;102674.28;5094583;28;19916;-79
2024/01/31 01:04:44;;;;;;;;;;;;;;;5.14;63.52;102674.47;5097775;28;19916;-78
2024/01/31 01:07:36;;;;;;;;;;;;;;;5.16;63.04;102667.00;5094305;28;20401;-80
2024/01/31 01:10:28;;;;;;;;;;;;;;;5.25;62.61;102669.34;5093436;28;20467;-79
2024/01/31 01:13:20;;;;;;;;;;;;;;;5.31;62.86;102657.63;5096889;28;19911;-77
2024/01/31 01:16:12;;;;;;;;;;;;;;;5.39;61.90;102665.38;5094129;28;19916;-78
2024/01/31 01:19:04;;;;;;;;;;;;;;;5.41;62.17;102669.50;5092418;28;19919;-80
2024/01/31 01:21:56;;;;;;;;;;;;;;;5.50;60.76;102659.19;5096075;28;19912;-78
2024/01/31 01:24:49;;;;;;;;;;;;;;;5.46;60.38;102656.13;5093712;28;19912;-79
2024/01/31 01:27:41;;;;;;;;;;;;;;;5.52;59.88;102649.00;5091746;28;19912;-78
2024/01/31 01:30:30;;;;;;;;;;;;;;;5.50;60.05;102645.69;5095284;28;19912;-78
2024/01/31 01:33:20;;;;;;;;;;;;;;;5.47;59.81;102646.16;5093490;28;19916;-79
2024/01/31 01:36:09;;;;;;;;;;;;;;;5.38;59.71;102658.38;5096460;28;20376;-79
2024/01/31 01:39:01;;;;;;;;;;;;;;;5.36;60.26;102652.38;5094946;28;19916;-79
2024/01/31 01:41:53;;;;;;;;;;;;;;;5.26;60.69;102644.03;5092486;28;20388;-78
2024/01/31 01:44:42;;;;;;;;;;;;;;;5.34;60.29;102646.38;5096235;28;19916;-77
2024/01/31 01:47:32;;;;;;;;;;;;;;;5.31;59.75;102644.97;5094155;28;19912;-78
2024/01/31 01:50:24;;;;;;;;;;;;;;;5.28;61.02;102641.94;5091763;28;19916;-78
2024/01/31 01:53:16;;;;;;;;;;;;;;;5.49;60.27;102630.53;5095637;28;19920;-77
2024/01/31 01:56:09;;;;;;;;;;;;;;;5.60;59.97;102641.34;5092523;28;19919;-79
2024/01/31 01:59:02;;;;;;;;;;;;;;;5.69;59.79;102636.41;5096632;28;20543;-79
2024/01/31 02:01:51;;;;;;;;;;;;;;;5.72;59.78;102638.66;5094601;28;19912;-77
2024/01/31 02:04:41;;;;;;;;;;;;;;;5.68;60.37;102639.38;5092486;28;19916;-77
2024/01/31 02:07:33;;;;;;;;;;;;;;;5.64;61.03;102633.59;5093892;28;19930;-78
2024/01/31 02:10:20;;;;;;;;;;;;;;;5.63;61.21;102631.16;5093975;28;19915;-78
2024/01/31 02:13:12;;;;;;;;;;;;;;;5.69;62.31;102633.72;5091945;28;19911;-78
2024/01/31 02:16:04;;;;;;;;;;;;;;;5.74;60.58;102633.03;5096693;28;19915;-78
2024/01/31 02:18:56;;;;;;;;;;;;;;;5.63;59.74;102618.50;5097518;28;19916;-78
2024/01/31 02:21:43;;;;;;;;;;;;;;;5.61;59.53;102617.91;5095130;28;19912;-79
2024/01/31 02:24:35;;;;;;;;;;;;;;;5.50;59.66;102619.53;5098997;28;19916;-79
2024/01/31 02:27:27;;;;;;;;;;;;;;;5.41;60.96;102617.41;5096663;28;20373;-79
2024/01/31 02:30:16;;;;;;;;;;;;;;;5.30;61.78;102612.84;5100610;28;19912;-79
2024/01/31 02:33:06;;;;;;;;;;;;;;;5.11;62.52;102620.22;5098464;28;19912;-80
2024/01/31 02:36:01;;;;;;;;;;;;;;;5.12;61.94;102613.75;5101534;28;19912;-79
2024/01/31 02:38:48;;;;;;;;;;;;;;;5.13;61.62;102618.91;5101729;28;19916;-78
2024/01/31 02:41:40;;;;;;;;;;;;;;;5.20;61.66;102612.59;5094006;28;19919;-78
2024/01/31 02:44:37;;;;;;;;;;;;;;;5.20;61.22;102612.59;5099120;28;19916;-79
2024/01/31 02:47:26;;;;;;;;;;;;;;;5.20;62.50;102608.03;5094161;28;19912;-78
2024/01/31 02:50:18;;;;;;;;;;;;;;;5.20;62.78;102599.94;5095772;28;20455;-78
2024/01/31 02:53:10;;;;;;;;;;;;;;;5.43;61.24;102594.56;5098966;28;19916;-77
2024/01/31 02:56:02;;;;;;;;;;;;;;;5.33;62.79;102609.69;5096822;28;19911;-79
2024/01/31 02:58:54;;;;;;;;;;;;;;;5.25;62.85;102601.94;5094941;28;20369;-78
2024/01/31 03:01:49;;;;;;;;;;;;;;;5.34;62.16;102597.81;5098223;28;19916;-80
2024/01/31 03:04:41;;;;;;;;;;;;;;;5.29;60.60;102600.41;5095977;28;19916;-80
2024/01/31 03:07:30;;;;;;;;;;;;;;;5.36;60.06;102601.13;5096941;28;19912;-80
2024/01/31 03:10:22;;;;;;;;;;;;;;;5.22;58.63;102599.72;5097540;28;20276;-80
2024/01/31 03:13:14;;;;;;;;;;;;;;;5.18;59.56;102602.06;5095357;28;19912;-78
2024/01/31 03:16:06;;;;;;;;;;;;;;;5.20;59.92;102599.09;5091790;28;19915;-78
2024/01/31 03:18:58;;;;;;;;;;;;;;;5.13;59.55;102596.50;5096690;28;20320;-79
2024/01/31 03:21:50;;;;;;;;;;;;;;;5.34;59.23;102595.13;5094353;28;20320;-78
2024/01/31 03:24:42;;;;;;;;;;;;;;;5.35;58.77;102596.78;5100940;28;19916;-78
2024/01/31 03:27:31;;;;;;;;;;;;;;;5.42;59.12;102586.69;5094580;28;19912;-79
2024/01/31 03:30:21;;;;;;;;;;;;;;;5.26;59.15;102587.38;5099401;28;19916;-80
2024/01/31 03:33:13;;;;;;;;;;;;;;;5.03;58.75;102586.31;5097569;28;19912;-78
2024/01/31 03:36:05;;;;;;;;;;;;;;;4.58;61.25;102588.66;5095428;28;19912;-77
2024/01/31 03:38:57;;;;;;;;;;;;;;;4.92;60.33;102587.13;5098587;28;19920;-78
2024/01/31 03:41:49;;;;;;;;;;;;;;;4.92;59.48;102584.44;5096404;28;20164;-79
2024/01/31 03:44:41;;;;;;;;;;;;;;;4.84;60.74;102587.44;5094045;28;19916;-79
2024/01/31 03:47:28;;;;;;;;;;;;;;;4.80;60.71;102583.56;5096556;28;19912;-78
2024/01/31 03:50:20;;;;;;;;;;;;;;;4.78;62.22;102584.84;5100393;28;19912;-78
2024/01/31 03:53:12;;;;;;;;;;;;;;;4.65;64.06;102585.88;5099202;28;19915;-78
2024/01/31 03:56:04;;;;;;;;;;;;;;;4.60;66.21;102583.88;5096970;28;19912;-80
2024/01/31 03:58:56;;;;;;;;;;;;;;;4.63;65.34;102582.56;5094848;28;19924;-79
2024/01/31 04:01:48;;;;;;;;;;;;;;;4.53;66.05;102582.31;5098187;28;19916;-78
2024/01/31 04:04:35;;;;;;;;;;;;;;;4.34;65.81;102581.53;5096063;28;19912;-79
2024/01/31 04:07:27;;;;;;;;;;;;;;;4.11;65.31;102586.81;5094055;28;20311;-78
2024/01/31 04:10:19;;;;;;;;;;;;;;;4.12;64.86;102574.97;5097668;28;19911;-80
2024/01/31 04:13:11;;;;;;;;;;;;;;;4.22;64.08;102568.00;5095558;28;20385;-79
2024/01/31 04:16:00;;;;;;;;;;;;;;;4.32;62.60;102565.59;5092804;28;19916;-78
2024/01/31 04:18:52;;;;;;;;;;;;;;;4.46;63.21;102576.22;5093763;28;19916;-78
2024/01/31 04:21:47;;;;;;;;;;;;;;;4.43;64.51;102573.94;5095010;28;19912;-79
2024/01/31 04:24:39;;;;;;;;;;;;;;;4.15;63.75;102570.00;5097690;28;19912;-79
2024/01/31 04:27:28;;;;;;;;;;;;;;;4.06;64.17;102571.34;5095591;28;19912;-80
2024/01/31 04:30:17;;;;;;;;;;;;;;;3.99;63.00;102573.28;5093662;28;19920;-79
2024/01/31 04:33:04;;;;;;;;;;;;;;;4.00;62.13;102568.72;5097516;28;19912;-78
2024/01/31 04:35:56;;;;;;;;;;;;;;;4.25;61.84;102564.06;5092373;28;19915;-78
2024/01/31 04:38:48;;;;;;;;;;;;;;;4.30;62.00;102565.03;5092933;28;19919;-80
2024/01/31 04:41:40;;;;;;;;;;;;;;;4.42;62.10;102564.25;5099517;28;19912;-78
2024/01/31 04:44:30;;;;;;;;;;;;;;;4.23;63.06;102569.66;5094808;28;19916;-79
2024/01/31 04:47:22;;;;;;;;;;;;;;;4.21;62.81;102579.84;5092466;28;19912;-78
2024/01/31 04:50:11;;;;;;;;;;;;;;;4.15;62.50;102582.63;5096328;28;19911;-79
2024/01/31 04:53:06;;;;;;;;;;;;;;;4.01;62.26;102575.78;5094307;28;19916;-77
2024/01/31 04:55:56;;;;;;;;;;;;;;;4.16;62.41;102581.59;5098392;28;19916;-79
2024/01/31 04:58:48;;;;;;;;;;;;;;;3.93;61.87;102582.25;5095415;28;19920;-78
2024/01/31 05:01:43;;;;;;;;;;;;;;;3.82;61.61;102580.31;5092907;28;19912;-80
2024/01/31 05:04:35;;;;;;;;;;;;;;;3.83;61.60;102579.28;5096489;28;19912;-78
2024/01/31 05:07:27;;;;;;;;;;;;;;;3.96;61.00;102572.94;5094238;28;19912;-78
2024/01/31 05:10:19;;;;;;;;;;;;;;;4.01;60.75;102576.59;5086824;28;19916;-79
2024/01/31 05:13:11;;;;;;;;;;;;;;;3.92;60.73;102577.91;5095532;28;19912;-78
2024/01/31 05:16:03;;;;;;;;;;;;;;;4.02;60.40;102572.00;5097788;28;19915;-77
2024/01/31 05:18:53;;;;;;;;;;;;;;;4.00;60.44;102580.31;5098367;28;19920;-78
2024/01/31 05:21:45;;;;;;;;;;;;;;;3.79;60.15;102576.22;5094201;28;19916;-78
2024/01/31 05:24:35;;;;;;;;;;;;;;;3.80;60.30;102577.03;5092041;28;20295;-79
2024/01/31 05:27:27;;;;;;;;;;;;;;;3.78;59.80;102585.34;5094691;28;19912;-78
2024/01/31 05:30:19;;;;;;;;;;;;;;;3.81;60.41;102581.34;5093986;28;20376;-78
2024/01/31 05:33:11;;;;;;;;;;;;;;;3.95;59.82;102580.19;5097222;28;19911;-78
2024/01/31 05:36:00;;;;;;;;;;;;;;;3.87;59.59;102585.84;5097778;28;19912;-78
2024/01/31 05:38:52;;;;;;;;;;;;;;;3.74;59.29;102581.44;5093043;28;19915;-79
2024/01/31 05:41:47;;;;;;;;;;;;;;;3.62;60.28;102585.91;5097023;28;19916;-79
2024/01/31 05:44:39;;;;;;;;;;;;;;;3.67;59.39;102582.56;5094416;28;19919;-78
2024/01/31 05:47:32;;;;;;;;;;;;;;;3.69;59.26;102585.84;5092059;28;19912;-81
2024/01/31 05:50:27;;;;;;;;;;;;;;;3.80;58.46;102579.72;5090098;28;19931;-80
2024/01/31 05:53:19;;;;;;;;;;;;;;;3.83;58.68;102584.66;5086714;28;20263;-81
2024/01/31 05:56:11;;;;;;;;;;;;;;;3.84;59.62;102586.31;5095115;28;19912;-81
2024/01/31 05:59:06;;;;;;;;;;;;;;;3.86;58.41;102590.41;5093260;28;19919;-79
2024/01/31 06:01:58;;;;;;;;;;;;;;;3.82;60.38;102586.53;5092772;28;19912;-78
2024/01/31 06:04:50;;;;;;;;;;;;;;;3.93;58.25;102590.34;5096228;28;20418;-78
2024/01/31 06:07:42;;;;;;;;;;;;;;;3.91;57.70;102581.69;5093930;28;19920;-79
2024/01/31 06:10:34;;;;;;;;;;;;;;;4.00;57.70;102588.41;5092006;28;19920;-79
2024/01/31 06:13:26;;;;;;;;;;;;;;;3.95;57.10;102593.63;5098222;28;19920;-79
2024/01/31 06:16:15;;;;;;;;;;;;;;;3.84;56.31;102592.50;5092818;28;20284;-79
2024/01/31 06:19:07;;;;;;;;;;;;;;;3.73;56.57;102589.72;5098325;28;19920;-80
2024/01/31 06:21:59;;;;;;;;;;;;;;;3.69;56.60;102585.84;5094832;28;19912;-78
2024/01/31 06:24:49;;;;;;;;;;;;;;;3.55;57.29;102592.41;5093250;28;19911;-80
2024/01/31 06:27:41;;;;;;;;;;;;;;;3.60;57.83;102588.03;5094426;28;19912;-80
2024/01/31 06:30:33;;;;;;;;;;;;;;;3.52;58.16;102598.22;5093990;28;19912;-78
2024/01/31 06:33:27;;;;;;;;;;;;;;;3.63;58.94;102608.25;5087801;28;19912;-80
2024/01/31 06:36:20;;;;;;;;;;;;;;;3.64;58.84;102608.03;5081576;28;19912;-77
2024/01/31 06:39:09;;;;;;;;;;;;;;;3.61;58.29;102615.72;5093328;28;20575;-78
2024/01/31 06:42:01;;;;;;;;;;;;;;;3.50;59.00;102617.28;5097340;28;19934;-78
2024/01/31 06:44:53;;;;;;;;;;;;;;;3.35;57.99;102620.28;5094220;28;19916;-78
2024/01/31 06:47:43;;;;;;;;;;;;;;;3.38;58.79;102627.13;5092323;28;19912;-78
2024/01/31 06:50:35;;;;;;;;;;;;;;;3.20;59.06;102624.38;5093432;28;19912;-78
2024/01/31 06:53:27;;;;;;;;;;;;;;;3.22;59.49;102624.97;5093883;28;19916;-78
2024/01/31 06:56:19;;;;;;;;;;;;;;;3.31;59.58;102619.09;5091471;28;19912;-80
2024/01/31 06:59:11;;;;;;;;;;;;;;;3.18;59.23;102621.91;5095550;28;19920;-78
2024/01/31 07:02:03;;;;;;;;;;;;;;;2.62;60.32;102623.72;5093350;28;19994;-78
2024/01/31 07:04:55;;;;;;;;;;;;;;;2.61;61.14;102627.47;5093757;28;19912;-77
2024/01/31 07:07:47;;;;;;;;;;;;;;;2.44;61.99;102635.16;5096108;28;20388;-78
2024/01/31 07:10:39;;;;;;;;;;;;;;;2.73;60.94;102641.84;5095229;28;19916;-77
2024/01/31 07:13:31;;;;;;;;;;;;;;;3.80;64.03;102647.00;5098845;28;19919;-78
2024/01/31 07:16:23;;;;;;;;;;;;;;;3.22;59.57;102641.09;5096282;28;19912;-79
2024/01/31 07:19:15;;;;;;;;;;;;;;;2.94;60.28;102645.03;5094264;28;19916;-79
2024/01/31 07:22:07;;;;;;;;;;;;;;;2.96;60.91;102650.16;5096600;28;19915;-79
2024/01/31 07:24:57;;;;;;;;;;;;;;;3.06;60.63;102649.69;5087855;28;19912;-78
2024/01/31 07:27:49;;;;;;;;;;;;;;;3.15;60.87;102646.50;5095717;28;19916;-78
2024/01/31 07:30:44;;;;;;;;;;;;;;;3.19;61.08;102652.28;5097221;28;20288;-79
2024/01/31 07:33:36;;;;;;;;;;;;;;;3.42;60.02;102660.56;5094905;28;19916;-79
2024/01/31 07:36:28;;;;;;;;;;;;;;;3.27;60.24;102658.22;5098247;28;19915;-79
2024/01/31 07:39:20;;;;;;;;;;;;;;;3.23;60.98;102659.69;5096417;28;20376;-79
2024/01/31 07:42:12;;;;;;;;;;;;;;;3.01;61.21;102651.16;5094020;28;20246;-79
2024/01/31 07:45:04;;;;;;;;;;;;;;;3.09;61.70;102652.78;5097327;28;19911;-79
2024/01/31 07:47:56;;;;;;;;;;;;;;;3.06;62.25;102663.13;5094937;28;19912;-79
2024/01/31 07:50:46;;;;;;;;;;;;;;;4.43;67.95;102669.03;5098655;28;19915;-78
2024/01/31 07:53:39;;;;;;;;;;;;;;;3.76;61.57;102670.00;5095424;28;20296;-78
2024/01/31 07:56:31;;;;;;;;;;;;;;;4.94;69.20;102670.44;5093520;28;19912;-79
2024/01/31 07:59:23;;;;;;;;;;;;;;;5.80;65.61;102667.16;5093112;28;19920;-79
2024/01/31 08:02:15;;;;;;;;;;;;;;;5.39;57.69;102662.69;5095428;28;19911;-78
2024/01/31 08:05:07;;;;;;;;;;;;;;;5.57;58.48;102665.28;5093143;28;19916;-78
2024/01/31 08:07:58;;;;;;;;;;;;;;;4.80;59.02;102650.94;5094453;28;19916;-79
2024/01/31 08:10:48;;;;;;;;;;;;;;;6.36;64.48;102664.66;5094394;28;20369;-77
2024/01/31 08:13:46;;;;;;;;;;;;;;;5.78;56.22;102663.91;5095313;28;19916;-78
2024/01/31 08:16:38;;;;;;;;;;;;;;;5.18;58.60;102671.34;5095504;28;19916;-79
2024/01/31 08:19:30;;;;;;;;;;;;;;;4.97;60.06;102668.13;5092994;28;19920;-78
2024/01/31 08:22:22;;;;;;;;;;;;;;;4.82;60.04;102664.19;5096967;28;19912;-79
2024/01/31 08:25:14;;;;;;;;;;;;;;;4.68;61.21;102663.53;5095085;28;19916;-80
2024/01/31 08:28:06;;;;;;;;;;;;;;;4.61;61.64;102660.94;5091242;28;19916;-78
2024/01/31 08:30:56;;;;;;;;;;;;;;;4.50;61.62;102660.88;5092272;28;19924;-77
2024/01/31 08:33:48;;;;;;;;;;;;;;;4.46;63.22;102665.09;5094106;28;19916;-80
2024/01/31 08:36:40;;;;;;;;;;;;;;;4.52;63.22;102662.28;5097253;28;19912;-80
2024/01/31 08:39:32;;;;;;;;;;;;;;;4.45;64.31;102663.44;5095455;28;19942;-82
2024/01/31 08:42:29;;;;;;;;;;;;;;;4.37;65.56;102663.75;5090333;28;19915;-79
2024/01/31 08:45:21;;;;;;;;;;;;;;;4.66;66.44;102665.66;5090120;28;19912;-78
2024/01/31 08:48:13;;;;;;;;;;;;;;;5.00;64.80;102670.34;5091362;28;20368;-79
2024/01/31 08:51:05;;;;;;;;;;;;;;;6.05;60.88;102675.03;5080129;28;19915;-78
2024/01/31 08:53:57;;;;;;;;;;;;;;;5.61;61.65;102674.56;5093435;28;19919;-77
2024/01/31 08:56:49;;;;;;;;;;;;;;;5.52;62.25;102667.88;5090374;28;19916;-78
2024/01/31 08:59:38;;;;;;;;;;;;;;;5.39;62.46;102668.91;5091968;28;19916;-77
2024/01/31 09:02:28;;;;;;;;;;;;;;;5.31;63.18;102668.44;5094644;28;19916;-77
2024/01/31 09:05:17;;;;;;;;;;;;;;;5.27;63.94;102661.84;5088002;28;19916;-78
2024/01/31 09:08:09;;;;;;;;;;;;;;;5.30;64.98;102673.00;5092376;28;19916;-78
2024/01/31 09:11:01;;;;;;;;;;;;;;;5.32;65.50;102670.91;5095457;28;19912;-77
2024/01/31 09:13:51;;;;;;;;;;;;;;;5.37;64.81;102662.09;5093141;28;19912;-77
2024/01/31 09:16:41;;;;;;;;;;;;;;;5.43;64.87;102659.31;5096367;28;19912;-77
2024/01/31 09:19:30;;;;;;;;;;;;;;;5.49;65.01;102666.44;5094923;28;19915;-77
2024/01/31 09:22:20;;;;;;;;;;;;;;;5.49;65.09;102668.31;5092792;28;19916;-77
2024/01/31 09:25:09;;;;;;;;;;;;;;;5.58;65.42;102675.03;5095235;28;19912;-77
2024/01/31 09:28:01;;;;;;;;;;;;;;;5.69;64.81;102671.50;5092950;28;20294;-78
2024/01/31 09:30:53;;;;;;;;;;;;;;;5.78;63.63;102666.59;5092333;28;19912;-78
2024/01/31 09:33:45;;;;;;;;;;;;;;;5.80;63.58;102673.38;5096077;28;19912;-78
2024/01/31 09:36:37;;;;;;;;;;;;;;;5.88;64.83;102664.16;5093448;28;20304;-77
2024/01/31 09:39:28;;;;;;;;;;;;;;;5.99;64.86;102666.03;5097046;28;19916;-78
2024/01/31 09:42:20;;;;;;;;;;;;;;;6.10;65.04;102662.47;5095050;28;19916;-77
2024/01/31 09:45:12;;;;;;;;;;;;;;;6.23;63.42;102667.63;5092157;28;20304;-78
2024/01/31 09:48:04;;;;;;;;;;;;;;;6.30;63.52;102657.50;5092726;28;19911;-78
2024/01/31 09:50:56;;;;;;;;;;;;;;;6.47;62.62;102657.56;5093877;28;19916;-77
2024/01/31 09:53:49;;;;;;;;;;;;;;;6.58;63.77;102656.72;5092045;28;19912;-77
2024/01/31 09:56:41;;;;;;;;;;;;;;;6.71;63.72;102650.19;5095342;28;19916;-77
2024/01/31 09:59:33;;;;;;;;;;;;;;;6.74;64.33;102653.25;5093266;28;19916;-77
2024/01/31 10:02:22;;;;;;;;;;;;;;;6.92;63.78;102656.78;5097177;28;19912;-77
2024/01/31 10:05:14;;;;;;;;;;;;;;;7.06;63.15;102656.25;5094315;28;19912;-78
2024/01/31 10:08:04;;;;;;;;;;;;;;;7.20;61.91;102656.78;5085603;28;19946;-78
2024/01/31 10:10:58;;;;;;;;;;;;;;;7.25;61.47;102648.75;5090441;28;20184;-78
2024/01/31 10:13:45;;;;;;;;;;;;;;;7.42;61.98;102652.25;5093439;28;19912;-78
2024/01/31 10:16:31;;;;;;;;;;;;;;;7.69;60.98;102649.69;5091006;28;20471;-78
2024/01/31 10:19:23;;;;;;;;;;;;;;;7.84;59.25;102649.09;5095705;28;19916;-79
2024/01/31 10:22:15;;;;;;;;;;;;;;;8.07;58.34;102646.19;5093699;28;19912;-77
2024/01/31 10:25:10;;;;;;;;;;;;;;;8.35;58.14;102647.91;5091072;28;19920;-77
2024/01/31 10:28:04;;;;;;;;;;;;;;;8.56;55.13;102642.47;5092567;28;20304;-77
2024/01/31 10:30:57;;;;;;;;;;;;;;;8.70;55.06;102625.78;5092306;28;20151;-77
2024/01/31 10:33:49;;;;;;;;;;;;;;;8.74;54.38;102629.63;5096073;28;19912;-77
2024/01/31 10:36:45;;;;;;;;;;;;;;;9.10;53.85;102628.06;5094082;28;19927;-78
2024/01/31 10:39:37;;;;;;;;;;;;;;;9.18;53.14;102633.84;5095204;28;20351;-76
2024/01/31 10:42:26;;;;;;;;;;;;;;;9.34;52.19;102623.94;5099173;28;19912;-77
2024/01/31 10:45:16;;;;;;;;;;;;;;;9.56;51.96;102631.97;5096323;28;19912;-79
2024/01/31 10:48:08;;;;;;;;;;;;;;;9.69;51.34;102628.81;5094566;28;19924;-77
2024/01/31 10:51:01;;;;;;;;;;;;;;;9.85;51.13;102631.31;5097966;28;19923;-78
2024/01/31 10:53:55;;;;;;;;;;;;;;;10.05;51.74;102613.50;5095259;28;19912;-77
2024/01/31 10:56:45;;;;;;;;;;;;;;;10.24;51.45;102609.25;5098926;28;19915;-77
2024/01/31 10:59:41;;;;;;;;;;;;;;;10.29;52.52;102610.09;5097263;28;20373;-80
2024/01/31 11:02:33;;;;;;;;;;;;;;;10.46;52.90;102601.72;5094835;28;19912;-79
2024/01/31 11:05:27;;;;;;;;;;;;;;;10.60;51.56;102602.03;5097850;28;19912;-79
2024/01/31 11:08:23;;;;;;;;;;;;;;;10.66;51.20;102603.69;5094637;28;20372;-77
2024/01/31 11:11:20;;;;;;;;;;;;;;;10.81;50.37;102589.28;5092600;28;19912;-77
2024/01/31 11:14:14;;;;;;;;;;;;;;;10.89;50.09;102584.09;5096641;28;19911;-78
2024/01/31 11:17:22;;;;;;;;;;;;;;;11.09;50.03;102591.47;5094152;28;19912;-78
2024/01/31 11:20:14;;;;;;;;;;;;;;;11.19;49.32;102579.75;5097467;28;19920;-78
2024/01/31 11:23:06;;;;;;;;;;;;;;;11.26;48.31;102581.09;5094637;28;19920;-77
2024/01/31 11:25:58;;;;;;;;;;;;;;;11.37;47.83;102574.56;5095618;28;19920;-78
2024/01/31 11:28:49;;;;;;;;;;;;;;;11.47;49.53;102580.00;5098417;28;19912;-77
2024/01/31 11:31:41;;;;;;;;;;;;;;;11.44;49.29;102571.53;5092554;28;19912;-79
2024/01/31 11:34:30;;;;;;;;;;;;;;;11.61;49.27;102571.22;5092373;28;19912;-75
2024/01/31 11:37:19;;;;;;;;;;;;;;;11.57;48.46;102563.63;5084632;28;19912;-77
2024/01/31 11:40:11;;;;;;;;;;;;;;;11.70;47.51;102570.38;5099460;28;19916;-79
2024/01/31 11:43:03;;;;;;;;;;;;;;;11.77;47.16;102570.97;5095304;28;19912;-80
2024/01/31 11:45:55;;;;;;;;;;;;;;;11.89;46.76;102568.72;5094764;28;19915;-80
2024/01/31 11:48:47;;;;;;;;;;;;;;;12.02;46.19;102559.13;5095952;28;20396;-78
2024/01/31 11:51:44;;;;;;;;;;;;;;;12.11;45.15;102562.09;5085770;28;20396;-78
2024/01/31 11:54:36;;;;;;;;;;;;;;;12.11;45.65;102548.44;5093553;28;20296;-78
2024/01/31 11:57:25;;;;;;;;;;;;;;;12.17;45.46;102547.34;5090662;28;19913;-77
2024/01/31 12:00:18;;;;;;;;;;;;;;;11.99;45.56;102538.69;5086275;28;20381;-77
2024/01/31 12:03:10;;;;;;;;;;;;;;;12.11;45.40;102532.91;5085530;28;20296;-78
2024/01/31 12:06:01;;;;;;;;;;;;;;;12.12;45.90;102534.53;5096441;28;19912;-80
2024/01/31 12:08:49;;;;;;;;;;;;;;;12.23;45.10;102530.66;5094349;28;19912;-80
2024/01/31 12:11:41;;;;;;;;;;;;;;;12.31;45.07;102531.97;5098144;28;19912;-78
2024/01/31 12:14:31;;;;;;;;;;;;;;;12.35;44.87;102533.03;5095763;28;20297;-80
2024/01/31 12:17:24;;;;;;;;;;;;;;;12.35;45.18;102522.13;5093147;28;19916;-79
2024/01/31 12:20:16;;;;;;;;;;;;;;;12.35;45.01;102522.13;5097066;28;19916;-79
2024/01/31 12:23:05;;;;;;;;;;;;;;;12.49;44.50;102509.50;5095132;28;19916;-79
2024/01/31 12:25:57;;;;;;;;;;;;;;;12.52;44.39;102500.72;5092433;28;19916;-79
2024/01/31 12:28:54;;;;;;;;;;;;;;;12.54;43.81;102503.19;5096543;28;19915;-78
2024/01/31 12:31:51;;;;;;;;;;;;;;;12.91;43.15;102508.03;5091892;28;20299;-79
2024/01/31 12:34:42;;;;;;;;;;;;;;;12.84;41.89;102497.47;5087614;28;19912;-79
2024/01/31 12:37:34;;;;;;;;;;;;;;;13.09;43.06;102504.59;5090862;28;19912;-80
2024/01/31 12:40:26;;;;;;;;;;;;;;;12.93;42.44;102492.19;5092649;28;19916;-79
2024/01/31 12:43:15;;;;;;;;;;;;;;;12.79;41.90;102500.25;5089508;28;20384;-78
2024/01/31 12:46:08;;;;;;;;;;;;;;;12.84;42.08;102492.81;5094001;28;19916;-79
2024/01/31 12:48:57;;;;;;;;;;;;;;;12.81;42.30;102490.66;5090083;28;19912;-79
2024/01/31 12:51:49;;;;;;;;;;;;;;;12.83;41.80;102480.28;5093438;28;19916;-80
2024/01/31 12:54:41;;;;;;;;;;;;;;;12.84;41.85;102481.09;5093094;28;19916;-79
2024/01/31 12:57:28;;;;;;;;;;;;;;;12.90;41.53;102485.38;5094488;28;19912;-78
2024/01/31 13:00:20;;;;;;;;;;;;;;;12.98;41.75;102473.03;5088606;28;20384;-79
2024/01/31 13:03:12;;;;;;;;;;;;;;;13.00;41.39;102462.66;5092749;28;19911;-78
2024/01/31 13:06:04;;;;;;;;;;;;;;;13.13;41.40;102468.25;5096501;28;19912;-79
2024/01/31 13:08:57;;;;;;;;;;;;;;;13.31;42.02;102468.63;5091154;28;20304;-79
2024/01/31 13:11:46;;;;;;;;;;;;;;;13.21;40.99;102470.34;5086332;28;19916;-79
2024/01/31 13:14:38;;;;;;;;;;;;;;;13.18;39.99;102475.59;5095242;28;20380;-78
2024/01/31 13:17:30;;;;;;;;;;;;;;;13.86;45.27;102464.38;5091458;28;19911;-78
2024/01/31 13:20:22;;;;;;;;;;;;;;;13.75;40.50;102466.44;5093038;28;20304;-78
2024/01/31 13:23:15;;;;;;;;;;;;;;;13.58;41.30;102452.44;5093981;28;20389;-78
2024/01/31 13:26:07;;;;;;;;;;;;;;;13.54;40.44;102446.75;5092291;28;19915;-78
2024/01/31 13:28:57;;;;;;;;;;;;;;;13.44;40.87;102446.06;5096043;28;19915;-78
2024/01/31 13:31:49;;;;;;;;;;;;;;;13.41;40.37;102444.72;5094086;28;20285;-77
2024/01/31 13:34:41;;;;;;;;;;;;;;;13.34;41.00;102444.25;5091726;28;19912;-77
2024/01/31 13:37:30;;;;;;;;;;;;;;;13.34;40.72;102452.47;5094314;28;19912;-77
2024/01/31 13:40:22;;;;;;;;;;;;;;;13.33;40.71;102453.56;5093090;28;19920;-78
2024/01/31 13:43:14;;;;;;;;;;;;;;;13.34;40.46;102446.19;5097104;28;19912;-78
2024/01/31 13:46:06;;;;;;;;;;;;;;;13.39;40.75;102449.66;5094415;28;19911;-78
2024/01/31 13:48:56;;;;;;;;;;;;;;;13.26;41.25;102439.41;5092574;28;19916;-78
2024/01/31 13:51:46;;;;;;;;;;;;;;;13.30;42.02;102439.69;5096280;28;19912;-78
2024/01/31 13:54:38;;;;;;;;;;;;;;;13.17;42.46;102430.25;5092561;28;19920;-77
2024/01/31 13:57:30;;;;;;;;;;;;;;;13.23;42.77;102427.16;5086745;28;20380;-77
2024/01/31 14:00:22;;;;;;;;;;;;;;;13.54;42.10;102422.16;5095049;28;19920;-77
2024/01/31 14:03:11;;;;;;;;;;;;;;;13.57;41.87;102427.00;5082990;28;19916;-76
2024/01/31 14:06:03;;;;;;;;;;;;;;;13.57;42.61;102418.81;5087494;28;20205;-77
2024/01/31 14:08:59;;;;;;;;;;;;;;;13.59;42.50;102421.25;5083994;28;19912;-76
2024/01/31 14:11:57;;;;;;;;;;;;;;;13.67;42.57;102415.13;5087790;28;20365;-76
2024/01/31 14:14:49;;;;;;;;;;;;;;;13.80;42.62;102408.94;5087407;28;20384;-77
2024/01/31 14:17:41;;;;;;;;;;;;;;;13.80;42.32;102419.06;5090728;28;19912;-77
2024/01/31 14:20:33;;;;;;;;;;;;;;;13.81;42.48;102416.06;5095469;28;19935;-78
2024/01/31 14:23:23;;;;;;;;;;;;;;;13.88;43.04;102416.47;5098126;28;19920;-78
2024/01/31 14:26:15;;;;;;;;;;;;;;;13.94;42.85;102409.00;5089473;28;19912;-79
2024/01/31 14:29:07;;;;;;;;;;;;;;;13.95;42.81;102407.91;5091628;28;19912;-79
2024/01/31 14:31:59;;;;;;;;;;;;;;;13.86;42.95;102405.03;5098350;28;19912;-76
2024/01/31 14:34:49;;;;;;;;;;;;;;;13.81;43.33;102407.03;5096253;28;19912;-77
2024/01/31 14:37:41;;;;;;;;;;;;;;;13.70;43.53;102403.63;5095847;28;20388;-77
2024/01/31 14:40:32;;;;;;;;;;;;;;;13.70;44.03;102396.25;5089845;28;19916;-76
2024/01/31 14:43:26;;;;;;;;;;;;;;;13.80;44.29;102400.75;5090518;28;19916;-77
2024/01/31 14:46:18;;;;;;;;;;;;;;;13.78;44.43;102397.47;5098897;28;19952;-78
2024/01/31 14:49:13;;;;;;;;;;;;;;;13.81;44.73;102396.09;5096768;28;19911;-78